sensor_id;sensor_type;location;lat;lon;timestamp;P1;durP1;ratioP1;P2;durP2;ratioP2
16416;SDS011;8317;52.186;5.688;2023-05-07T00:01:42;3.53;;;3.08;;
16416;SDS011;8317;52.186;5.688;2023-05-07T00:04:10;7.57;;;3.58;;
16416;SDS011;8317;52.186;5.688;2023-05-07T00:06:38;5.97;;;3.10;;
16416;SDS011;8317;52.186;5.688;2023-05-07T00:09:07;5.15;;;2.80;;
16416;SDS011;8317;52.186;5.688;2023-05-07T00:11:34;4.50;;;3.70;;
16416;SDS011;8317;52.186;5.688;2023-05-07T00:14:01;6.35;;;3.92;;
16416;SDS011;8317;52.186;5.688;2023-05-07T00:16:28;3.90;;;3.25;;
16416;SDS011;8317;52.186;5.688;2023-05-07T00:18:55;4.95;;;4.45;;
16416;SDS011;8317;52.186;5.688;2023-05-07T00:21:23;5.03;;;3.72;;
16416;SDS011;8317;52.186;5.688;2023-05-07T00:23:51;4.25;;;3.72;;
16416;SDS011;8317;52.186;5.688;2023-05-07T00:26:20;3.90;;;3.10;;
16416;SDS011;8317;52.186;5.688;2023-05-07T00:28:47;5.60;;;3.83;;
16416;SDS011;8317;52.186;5.688;2023-05-07T00:31:14;7.32;;;4.25;;
16416;SDS011;8317;52.186;5.688;2023-05-07T00:33:41;6.20;;;3.30;;
16416;SDS011;8317;52.186;5.688;2023-05-07T00:36:08;4.00;;;3.60;;
16416;SDS011;8317;52.186;5.688;2023-05-07T00:38:36;4.03;;;3.63;;
16416;SDS011;8317;52.186;5.688;2023-05-07T00:41:03;4.40;;;4.00;;
16416;SDS011;8317;52.186;5.688;2023-05-07T00:43:31;5.95;;;4.72;;
16416;SDS011;8317;52.186;5.688;2023-05-07T00:45:59;6.13;;;4.20;;
16416;SDS011;8317;52.186;5.688;2023-05-07T00:48:26;4.30;;;3.90;;
16416;SDS011;8317;52.186;5.688;2023-05-07T00:50:54;5.57;;;4.22;;
16416;SDS011;8317;52.186;5.688;2023-05-07T00:53:22;6.53;;;3.88;;
16416;SDS011;8317;52.186;5.688;2023-05-07T00:55:49;8.50;;;4.47;;
16416;SDS011;8317;52.186;5.688;2023-05-07T00:58:17;5.68;;;3.63;;
16416;SDS011;8317;52.186;5.688;2023-05-07T01:00:45;5.05;;;3.90;;
16416;SDS011;8317;52.186;5.688;2023-05-07T01:03:13;4.95;;;4.32;;
16416;SDS011;8317;52.186;5.688;2023-05-07T01:05:40;6.78;;;4.25;;
16416;SDS011;8317;52.186;5.688;2023-05-07T01:08:08;6.90;;;3.85;;
16416;SDS011;8317;52.186;5.688;2023-05-07T01:10:35;12.27;;;4.65;;
16416;SDS011;8317;52.186;5.688;2023-05-07T01:13:03;4.13;;;3.72;;
16416;SDS011;8317;52.186;5.688;2023-05-07T01:15:30;4.78;;;4.25;;
16416;SDS011;8317;52.186;5.688;2023-05-07T01:17:59;6.05;;;4.10;;
16416;SDS011;8317;52.186;5.688;2023-05-07T01:20:26;8.70;;;4.63;;
16416;SDS011;8317;52.186;5.688;2023-05-07T01:22:56;7.68;;;4.57;;
16416;SDS011;8317;52.186;5.688;2023-05-07T01:25:24;4.30;;;3.90;;
16416;SDS011;8317;52.186;5.688;2023-05-07T01:27:51;6.18;;;3.75;;
16416;SDS011;8317;52.186;5.688;2023-05-07T01:30:18;5.65;;;3.83;;
16416;SDS011;8317;52.186;5.688;2023-05-07T01:32:48;7.78;;;3.92;;
16416;SDS011;8317;52.186;5.688;2023-05-07T01:35:19;7.78;;;5.20;;
16416;SDS011;8317;52.186;5.688;2023-05-07T01:37:47;4.68;;;4.18;;
16416;SDS011;8317;52.186;5.688;2023-05-07T01:40:16;5.45;;;4.18;;
16416;SDS011;8317;52.186;5.688;2023-05-07T01:42:43;5.97;;;4.63;;
16416;SDS011;8317;52.186;5.688;2023-05-07T01:45:10;6.85;;;3.97;;
16416;SDS011;8317;52.186;5.688;2023-05-07T01:47:38;5.63;;;4.38;;
16416;SDS011;8317;52.186;5.688;2023-05-07T01:50:06;4.38;;;3.90;;
16416;SDS011;8317;52.186;5.688;2023-05-07T01:52:35;5.32;;;3.95;;
16416;SDS011;8317;52.186;5.688;2023-05-07T01:55:03;4.63;;;3.83;;
16416;SDS011;8317;52.186;5.688;2023-05-07T01:57:32;5.25;;;4.47;;
16416;SDS011;8317;52.186;5.688;2023-05-07T01:59:59;6.70;;;4.38;;
16416;SDS011;8317;52.186;5.688;2023-05-07T02:02:27;4.20;;;3.80;;
16416;SDS011;8317;52.186;5.688;2023-05-07T02:04:55;4.72;;;4.20;;
16416;SDS011;8317;52.186;5.688;2023-05-07T02:07:22;7.18;;;4.80;;
16416;SDS011;8317;52.186;5.688;2023-05-07T02:09:49;7.20;;;4.15;;
16416;SDS011;8317;52.186;5.688;2023-05-07T02:12:17;6.55;;;5.40;;
16416;SDS011;8317;52.186;5.688;2023-05-07T02:14:45;5.78;;;4.38;;
16416;SDS011;8317;52.186;5.688;2023-05-07T02:17:13;5.35;;;4.85;;
16416;SDS011;8317;52.186;5.688;2023-05-07T02:19:40;7.28;;;5.00;;
16416;SDS011;8317;52.186;5.688;2023-05-07T02:22:07;5.88;;;4.85;;
16416;SDS011;8317;52.186;5.688;2023-05-07T02:24:34;8.23;;;5.78;;
16416;SDS011;8317;52.186;5.688;2023-05-07T02:27:01;10.13;;;5.43;;
16416;SDS011;8317;52.186;5.688;2023-05-07T02:29:29;5.43;;;4.75;;
16416;SDS011;8317;52.186;5.688;2023-05-07T02:31:57;8.25;;;5.53;;
16416;SDS011;8317;52.186;5.688;2023-05-07T02:34:25;6.53;;;5.40;;
16416;SDS011;8317;52.186;5.688;2023-05-07T02:36:52;6.07;;;5.22;;
16416;SDS011;8317;52.186;5.688;2023-05-07T02:39:19;7.45;;;6.10;;
16416;SDS011;8317;52.186;5.688;2023-05-07T02:41:46;6.57;;;5.43;;
16416;SDS011;8317;52.186;5.688;2023-05-07T02:44:13;8.18;;;6.20;;
16416;SDS011;8317;52.186;5.688;2023-05-07T02:46:40;10.43;;;6.53;;
16416;SDS011;8317;52.186;5.688;2023-05-07T02:49:09;9.93;;;6.40;;
16416;SDS011;8317;52.186;5.688;2023-05-07T02:51:36;10.27;;;5.40;;
16416;SDS011;8317;52.186;5.688;2023-05-07T02:54:04;6.25;;;5.63;;
16416;SDS011;8317;52.186;5.688;2023-05-07T02:56:31;7.32;;;5.60;;
16416;SDS011;8317;52.186;5.688;2023-05-07T02:58:59;7.60;;;5.63;;
16416;SDS011;8317;52.186;5.688;2023-05-07T03:01:26;7.55;;;5.38;;
16416;SDS011;8317;52.186;5.688;2023-05-07T03:03:53;8.48;;;5.78;;
16416;SDS011;8317;52.186;5.688;2023-05-07T03:06:22;8.80;;;6.50;;
16416;SDS011;8317;52.186;5.688;2023-05-07T03:08:49;7.50;;;6.00;;
16416;SDS011;8317;52.186;5.688;2023-05-07T03:11:17;9.05;;;6.95;;
16416;SDS011;8317;52.186;5.688;2023-05-07T03:13:44;9.52;;;6.38;;
16416;SDS011;8317;52.186;5.688;2023-05-07T03:16:11;8.50;;;6.85;;
16416;SDS011;8317;52.186;5.688;2023-05-07T03:18:38;9.60;;;6.78;;
16416;SDS011;8317;52.186;5.688;2023-05-07T03:21:06;8.20;;;6.70;;
16416;SDS011;8317;52.186;5.688;2023-05-07T03:23:34;9.57;;;6.60;;
16416;SDS011;8317;52.186;5.688;2023-05-07T03:26:01;9.88;;;6.47;;
16416;SDS011;8317;52.186;5.688;2023-05-07T03:28:29;8.30;;;6.60;;
16416;SDS011;8317;52.186;5.688;2023-05-07T03:30:56;8.20;;;6.57;;
16416;SDS011;8317;52.186;5.688;2023-05-07T03:33:23;9.82;;;7.25;;
16416;SDS011;8317;52.186;5.688;2023-05-07T03:35:50;8.20;;;5.72;;
16416;SDS011;8317;52.186;5.688;2023-05-07T03:38:17;11.50;;;6.10;;
16416;SDS011;8317;52.186;5.688;2023-05-07T03:40:46;8.95;;;6.82;;
16416;SDS011;8317;52.186;5.688;2023-05-07T03:43:13;7.20;;;6.50;;
16416;SDS011;8317;52.186;5.688;2023-05-07T03:45:40;8.68;;;6.18;;
16416;SDS011;8317;52.186;5.688;2023-05-07T03:48:07;10.05;;;6.88;;
16416;SDS011;8317;52.186;5.688;2023-05-07T03:50:35;8.82;;;6.10;;
16416;SDS011;8317;52.186;5.688;2023-05-07T03:53:02;10.57;;;7.53;;
16416;SDS011;8317;52.186;5.688;2023-05-07T03:55:29;10.85;;;6.78;;
16416;SDS011;8317;52.186;5.688;2023-05-07T03:57:58;11.18;;;7.28;;
16416;SDS011;8317;52.186;5.688;2023-05-07T04:00:25;10.77;;;8.02;;
16416;SDS011;8317;52.186;5.688;2023-05-07T04:02:52;12.55;;;7.93;;
16416;SDS011;8317;52.186;5.688;2023-05-07T04:05:19;10.70;;;7.40;;
16416;SDS011;8317;52.186;5.688;2023-05-07T04:07:46;15.93;;;8.65;;
16416;SDS011;8317;52.186;5.688;2023-05-07T04:10:14;12.30;;;7.30;;
16416;SDS011;8317;52.186;5.688;2023-05-07T04:12:41;12.68;;;9.00;;
16416;SDS011;8317;52.186;5.688;2023-05-07T04:15:10;10.30;;;8.35;;
16416;SDS011;8317;52.186;5.688;2023-05-07T04:17:37;12.75;;;8.70;;
16416;SDS011;8317;52.186;5.688;2023-05-07T04:20:05;11.18;;;8.30;;
16416;SDS011;8317;52.186;5.688;2023-05-07T04:22:33;12.25;;;9.60;;
16416;SDS011;8317;52.186;5.688;2023-05-07T04:25:00;14.00;;;9.48;;
16416;SDS011;8317;52.186;5.688;2023-05-07T04:27:27;13.73;;;9.95;;
16416;SDS011;8317;52.186;5.688;2023-05-07T04:29:54;17.67;;;10.10;;
16416;SDS011;8317;52.186;5.688;2023-05-07T04:32:23;13.85;;;9.93;;
16416;SDS011;8317;52.186;5.688;2023-05-07T04:34:50;16.65;;;11.10;;
16416;SDS011;8317;52.186;5.688;2023-05-07T04:37:18;17.25;;;10.88;;
16416;SDS011;8317;52.186;5.688;2023-05-07T04:39:45;18.55;;;10.25;;
16416;SDS011;8317;52.186;5.688;2023-05-07T04:42:14;18.48;;;11.70;;
16416;SDS011;8317;52.186;5.688;2023-05-07T04:44:41;20.63;;;12.48;;
16416;SDS011;8317;52.186;5.688;2023-05-07T04:47:08;16.85;;;10.95;;
16416;SDS011;8317;52.186;5.688;2023-05-07T04:49:37;16.27;;;10.98;;
16416;SDS011;8317;52.186;5.688;2023-05-07T04:52:05;20.35;;;12.18;;
16416;SDS011;8317;52.186;5.688;2023-05-07T04:54:32;22.63;;;11.82;;
16416;SDS011;8317;52.186;5.688;2023-05-07T04:56:59;19.58;;;12.88;;
16416;SDS011;8317;52.186;5.688;2023-05-07T04:59:26;25.83;;;13.07;;
16416;SDS011;8317;52.186;5.688;2023-05-07T05:01:53;21.35;;;12.68;;
16416;SDS011;8317;52.186;5.688;2023-05-07T05:04:20;20.42;;;13.60;;
16416;SDS011;8317;52.186;5.688;2023-05-07T05:06:49;18.08;;;12.02;;
16416;SDS011;8317;52.186;5.688;2023-05-07T05:09:16;22.02;;;11.60;;
16416;SDS011;8317;52.186;5.688;2023-05-07T05:11:44;17.80;;;12.88;;
16416;SDS011;8317;52.186;5.688;2023-05-07T05:14:11;16.23;;;12.10;;
16416;SDS011;8317;52.186;5.688;2023-05-07T05:16:38;25.75;;;14.57;;
16416;SDS011;8317;52.186;5.688;2023-05-07T05:19:05;20.30;;;13.25;;
16416;SDS011;8317;52.186;5.688;2023-05-07T05:21:32;18.52;;;12.77;;
16416;SDS011;8317;52.186;5.688;2023-05-07T05:24:01;18.60;;;12.98;;
16416;SDS011;8317;52.186;5.688;2023-05-07T05:26:28;21.15;;;13.10;;
16416;SDS011;8317;52.186;5.688;2023-05-07T05:28:56;19.95;;;13.00;;
16416;SDS011;8317;52.186;5.688;2023-05-07T05:31:23;21.20;;;14.43;;
16416;SDS011;8317;52.186;5.688;2023-05-07T05:33:50;19.90;;;13.55;;
16416;SDS011;8317;52.186;5.688;2023-05-07T05:36:17;17.23;;;12.43;;
16416;SDS011;8317;52.186;5.688;2023-05-07T05:38:44;22.40;;;12.82;;
16416;SDS011;8317;52.186;5.688;2023-05-07T05:41:13;21.15;;;14.05;;
16416;SDS011;8317;52.186;5.688;2023-05-07T05:43:40;22.40;;;13.65;;
16416;SDS011;8317;52.186;5.688;2023-05-07T05:46:07;22.98;;;13.93;;
16416;SDS011;8317;52.186;5.688;2023-05-07T05:48:36;24.70;;;14.98;;
16416;SDS011;8317;52.186;5.688;2023-05-07T05:51:04;21.85;;;14.02;;
16416;SDS011;8317;52.186;5.688;2023-05-07T05:53:31;21.63;;;13.77;;
16416;SDS011;8317;52.186;5.688;2023-05-07T05:55:58;23.75;;;14.38;;
16416;SDS011;8317;52.186;5.688;2023-05-07T05:58:27;23.13;;;13.35;;
16416;SDS011;8317;52.186;5.688;2023-05-07T06:00:54;24.33;;;14.57;;
16416;SDS011;8317;52.186;5.688;2023-05-07T06:03:21;21.40;;;13.85;;
16416;SDS011;8317;52.186;5.688;2023-05-07T06:05:49;25.27;;;14.73;;
16416;SDS011;8317;52.186;5.688;2023-05-07T06:08:16;21.15;;;12.95;;
16416;SDS011;8317;52.186;5.688;2023-05-07T06:10:43;25.92;;;14.63;;
16416;SDS011;8317;52.186;5.688;2023-05-07T06:13:10;24.77;;;15.95;;
16416;SDS011;8317;52.186;5.688;2023-05-07T06:15:39;22.05;;;14.32;;
16416;SDS011;8317;52.186;5.688;2023-05-07T06:18:06;22.83;;;14.32;;
16416;SDS011;8317;52.186;5.688;2023-05-07T06:20:33;21.80;;;14.82;;
16416;SDS011;8317;52.186;5.688;2023-05-07T06:23:01;23.05;;;14.73;;
16416;SDS011;8317;52.186;5.688;2023-05-07T06:25:28;24.60;;;14.93;;
16416;SDS011;8317;52.186;5.688;2023-05-07T06:27:55;26.95;;;14.25;;
16416;SDS011;8317;52.186;5.688;2023-05-07T06:30:22;23.20;;;14.57;;
16416;SDS011;8317;52.186;5.688;2023-05-07T06:32:51;23.23;;;14.70;;
16416;SDS011;8317;52.186;5.688;2023-05-07T06:35:18;23.27;;;15.15;;
16416;SDS011;8317;52.186;5.688;2023-05-07T06:37:45;22.15;;;14.63;;
16416;SDS011;8317;52.186;5.688;2023-05-07T06:40:12;21.13;;;12.43;;
16416;SDS011;8317;52.186;5.688;2023-05-07T06:42:40;22.67;;;13.52;;
16416;SDS011;8317;52.186;5.688;2023-05-07T06:45:08;22.15;;;13.63;;
16416;SDS011;8317;52.186;5.688;2023-05-07T06:47:35;24.27;;;13.73;;
16416;SDS011;8317;52.186;5.688;2023-05-07T06:50:04;23.73;;;13.55;;
16416;SDS011;8317;52.186;5.688;2023-05-07T06:52:31;23.73;;;14.80;;
16416;SDS011;8317;52.186;5.688;2023-05-07T06:54:59;22.80;;;15.27;;
16416;SDS011;8317;52.186;5.688;2023-05-07T06:57:26;25.15;;;14.43;;
16416;SDS011;8317;52.186;5.688;2023-05-07T06:59:53;20.38;;;13.02;;
16416;SDS011;8317;52.186;5.688;2023-05-07T07:02:21;24.05;;;15.18;;
16416;SDS011;8317;52.186;5.688;2023-05-07T07:04:48;23.38;;;14.52;;
16416;SDS011;8317;52.186;5.688;2023-05-07T07:07:16;22.45;;;14.88;;
16416;SDS011;8317;52.186;5.688;2023-05-07T07:09:44;25.08;;;15.23;;
16416;SDS011;8317;52.186;5.688;2023-05-07T07:12:11;22.88;;;13.60;;
16416;SDS011;8317;52.186;5.688;2023-05-07T07:14:38;22.10;;;13.23;;
16416;SDS011;8317;52.186;5.688;2023-05-07T07:17:05;21.20;;;12.90;;
16416;SDS011;8317;52.186;5.688;2023-05-07T07:19:32;21.55;;;13.02;;
16416;SDS011;8317;52.186;5.688;2023-05-07T07:22:00;26.20;;;13.90;;
16416;SDS011;8317;52.186;5.688;2023-05-07T07:24:28;20.30;;;12.52;;
16416;SDS011;8317;52.186;5.688;2023-05-07T07:26:56;16.83;;;11.43;;
16416;SDS011;8317;52.186;5.688;2023-05-07T07:29:23;22.98;;;12.95;;
16416;SDS011;8317;52.186;5.688;2023-05-07T07:31:51;18.65;;;12.45;;
16416;SDS011;8317;52.186;5.688;2023-05-07T07:34:19;16.33;;;10.93;;
16416;SDS011;8317;52.186;5.688;2023-05-07T07:36:46;20.42;;;12.15;;
16416;SDS011;8317;52.186;5.688;2023-05-07T07:39:13;16.20;;;11.13;;
16416;SDS011;8317;52.186;5.688;2023-05-07T07:41:42;17.98;;;11.90;;
16416;SDS011;8317;52.186;5.688;2023-05-07T07:44:09;15.85;;;11.07;;
16416;SDS011;8317;52.186;5.688;2023-05-07T07:46:38;21.80;;;13.18;;
16416;SDS011;8317;52.186;5.688;2023-05-07T07:49:05;19.23;;;11.02;;
16416;SDS011;8317;52.186;5.688;2023-05-07T07:51:32;20.05;;;12.50;;
16416;SDS011;8317;52.186;5.688;2023-05-07T07:54:00;17.35;;;10.80;;
16416;SDS011;8317;52.186;5.688;2023-05-07T07:56:27;16.30;;;11.32;;
16416;SDS011;8317;52.186;5.688;2023-05-07T07:58:56;20.13;;;11.93;;
16416;SDS011;8317;52.186;5.688;2023-05-07T08:01:23;25.83;;;13.30;;
16416;SDS011;8317;52.186;5.688;2023-05-07T08:03:51;21.52;;;12.52;;
16416;SDS011;8317;52.186;5.688;2023-05-07T08:06:18;22.23;;;12.68;;
16416;SDS011;8317;52.186;5.688;2023-05-07T08:08:45;18.67;;;11.90;;
16416;SDS011;8317;52.186;5.688;2023-05-07T08:11:12;22.63;;;12.43;;
16416;SDS011;8317;52.186;5.688;2023-05-07T08:13:39;24.90;;;12.48;;
16416;SDS011;8317;52.186;5.688;2023-05-07T08:16:08;22.15;;;13.07;;
16416;SDS011;8317;52.186;5.688;2023-05-07T08:18:35;19.77;;;11.82;;
16416;SDS011;8317;52.186;5.688;2023-05-07T08:21:03;18.70;;;12.82;;
16416;SDS011;8317;52.186;5.688;2023-05-07T08:23:30;21.50;;;12.98;;
16416;SDS011;8317;52.186;5.688;2023-05-07T08:25:59;18.52;;;11.05;;
16416;SDS011;8317;52.186;5.688;2023-05-07T08:28:26;24.50;;;12.35;;
16416;SDS011;8317;52.186;5.688;2023-05-07T08:30:53;21.17;;;12.23;;
16416;SDS011;8317;52.186;5.688;2023-05-07T08:33:22;19.95;;;12.40;;
16416;SDS011;8317;52.186;5.688;2023-05-07T08:35:50;19.35;;;12.23;;
16416;SDS011;8317;52.186;5.688;2023-05-07T08:38:17;26.02;;;12.73;;
16416;SDS011;8317;52.186;5.688;2023-05-07T08:40:44;19.20;;;11.35;;
16416;SDS011;8317;52.186;5.688;2023-05-07T08:43:12;17.92;;;11.52;;
16416;SDS011;8317;52.186;5.688;2023-05-07T08:45:39;17.20;;;11.15;;
16416;SDS011;8317;52.186;5.688;2023-05-07T08:48:08;28.00;;;11.57;;
16416;SDS011;8317;52.186;5.688;2023-05-07T08:50:37;16.83;;;10.50;;
16416;SDS011;8317;52.186;5.688;2023-05-07T08:53:04;17.77;;;12.18;;
16416;SDS011;8317;52.186;5.688;2023-05-07T08:55:32;16.67;;;10.63;;
16416;SDS011;8317;52.186;5.688;2023-05-07T08:57:59;18.40;;;12.07;;
16416;SDS011;8317;52.186;5.688;2023-05-07T09:00:26;21.02;;;12.48;;
16416;SDS011;8317;52.186;5.688;2023-05-07T09:02:53;21.48;;;12.20;;
16416;SDS011;8317;52.186;5.688;2023-05-07T09:05:21;20.05;;;11.98;;
16416;SDS011;8317;52.186;5.688;2023-05-07T09:07:49;19.00;;;12.13;;
16416;SDS011;8317;52.186;5.688;2023-05-07T09:10:17;18.40;;;10.63;;
16416;SDS011;8317;52.186;5.688;2023-05-07T09:12:44;20.33;;;12.75;;
16416;SDS011;8317;52.186;5.688;2023-05-07T09:15:13;21.80;;;12.80;;
16416;SDS011;8317;52.186;5.688;2023-05-07T09:17:40;23.00;;;12.35;;
16416;SDS011;8317;52.186;5.688;2023-05-07T09:20:08;19.75;;;11.95;;
16416;SDS011;8317;52.186;5.688;2023-05-07T09:22:36;17.95;;;11.30;;
16416;SDS011;8317;52.186;5.688;2023-05-07T09:25:05;22.85;;;12.65;;
16416;SDS011;8317;52.186;5.688;2023-05-07T09:27:33;21.13;;;13.30;;
16416;SDS011;8317;52.186;5.688;2023-05-07T09:30:02;26.13;;;15.07;;
16416;SDS011;8317;52.186;5.688;2023-05-07T09:32:32;21.02;;;13.52;;
16416;SDS011;8317;52.186;5.688;2023-05-07T09:35:00;21.55;;;13.43;;
16416;SDS011;8317;52.186;5.688;2023-05-07T09:37:27;22.63;;;13.93;;
16416;SDS011;8317;52.186;5.688;2023-05-07T09:39:54;24.45;;;14.45;;
16416;SDS011;8317;52.186;5.688;2023-05-07T09:42:26;22.63;;;14.25;;
16416;SDS011;8317;52.186;5.688;2023-05-07T09:44:53;24.60;;;13.90;;
16416;SDS011;8317;52.186;5.688;2023-05-07T09:47:22;25.50;;;14.90;;
16416;SDS011;8317;52.186;5.688;2023-05-07T09:49:50;20.98;;;13.38;;
16416;SDS011;8317;52.186;5.688;2023-05-07T09:52:20;22.02;;;13.60;;
16416;SDS011;8317;52.186;5.688;2023-05-07T09:54:48;23.83;;;13.43;;
16416;SDS011;8317;52.186;5.688;2023-05-07T09:57:17;22.75;;;13.23;;
16416;SDS011;8317;52.186;5.688;2023-05-07T09:59:47;23.50;;;14.30;;
16416;SDS011;8317;52.186;5.688;2023-05-07T10:02:16;25.92;;;14.73;;
16416;SDS011;8317;52.186;5.688;2023-05-07T10:04:44;23.65;;;13.38;;
16416;SDS011;8317;52.186;5.688;2023-05-07T10:07:13;22.77;;;12.95;;
16416;SDS011;8317;52.186;5.688;2023-05-07T10:09:40;20.90;;;13.90;;
16416;SDS011;8317;52.186;5.688;2023-05-07T10:12:08;25.42;;;13.73;;
16416;SDS011;8317;52.186;5.688;2023-05-07T10:14:36;22.95;;;13.35;;
16416;SDS011;8317;52.186;5.688;2023-05-07T10:17:05;22.02;;;14.52;;
16416;SDS011;8317;52.186;5.688;2023-05-07T10:19:32;22.13;;;14.07;;
16416;SDS011;8317;52.186;5.688;2023-05-07T10:22:02;24.65;;;14.48;;
16416;SDS011;8317;52.186;5.688;2023-05-07T10:24:31;26.63;;;14.38;;
16416;SDS011;8317;52.186;5.688;2023-05-07T10:26:59;26.75;;;14.02;;
16416;SDS011;8317;52.186;5.688;2023-05-07T10:29:29;23.00;;;14.40;;
16416;SDS011;8317;52.186;5.688;2023-05-07T10:32:05;21.52;;;13.32;;
16416;SDS011;8317;52.186;5.688;2023-05-07T10:34:37;22.45;;;14.85;;
16416;SDS011;8317;52.186;5.688;2023-05-07T10:37:05;20.80;;;13.77;;
16416;SDS011;8317;52.186;5.688;2023-05-07T10:39:34;20.77;;;13.50;;
16416;SDS011;8317;52.186;5.688;2023-05-07T10:42:07;19.48;;;12.82;;
16416;SDS011;8317;52.186;5.688;2023-05-07T10:44:35;22.75;;;14.60;;
16416;SDS011;8317;52.186;5.688;2023-05-07T10:47:06;25.10;;;13.85;;
16416;SDS011;8317;52.186;5.688;2023-05-07T10:49:34;19.92;;;13.45;;
16416;SDS011;8317;52.186;5.688;2023-05-07T10:52:12;24.02;;;14.57;;
16416;SDS011;8317;52.186;5.688;2023-05-07T10:54:40;23.17;;;13.18;;
16416;SDS011;8317;52.186;5.688;2023-05-07T10:59:53;25.50;;;15.02;;
16416;SDS011;8317;52.186;5.688;2023-05-07T11:02:21;19.70;;;12.15;;
16416;SDS011;8317;52.186;5.688;2023-05-07T11:04:57;18.23;;;11.98;;
16416;SDS011;8317;52.186;5.688;2023-05-07T11:07:46;19.33;;;11.65;;
16416;SDS011;8317;52.186;5.688;2023-05-07T11:10:21;18.50;;;11.40;;
16416;SDS011;8317;52.186;5.688;2023-05-07T11:12:49;18.05;;;11.43;;
16416;SDS011;8317;52.186;5.688;2023-05-07T11:17:59;15.43;;;10.40;;
16416;SDS011;8317;52.186;5.688;2023-05-07T11:23:17;17.48;;;10.15;;
16416;SDS011;8317;52.186;5.688;2023-05-07T11:26:06;15.07;;;9.80;;
16416;SDS011;8317;52.186;5.688;2023-05-07T11:28:36;16.67;;;10.82;;
16416;SDS011;8317;52.186;5.688;2023-05-07T11:31:04;15.98;;;10.50;;
16416;SDS011;8317;52.186;5.688;2023-05-07T11:33:31;14.02;;;9.38;;
16416;SDS011;8317;52.186;5.688;2023-05-07T11:35:59;16.65;;;10.30;;
16416;SDS011;8317;52.186;5.688;2023-05-07T11:38:28;17.20;;;10.65;;
16416;SDS011;8317;52.186;5.688;2023-05-07T11:40:56;16.40;;;10.77;;
16416;SDS011;8317;52.186;5.688;2023-05-07T11:43:24;14.75;;;10.38;;
16416;SDS011;8317;52.186;5.688;2023-05-07T11:45:51;15.95;;;10.82;;
16416;SDS011;8317;52.186;5.688;2023-05-07T11:48:18;22.48;;;11.90;;
16416;SDS011;8317;52.186;5.688;2023-05-07T11:50:50;17.50;;;11.57;;
16416;SDS011;8317;52.186;5.688;2023-05-07T11:53:17;15.63;;;10.68;;
16416;SDS011;8317;52.186;5.688;2023-05-07T11:55:46;19.48;;;11.20;;
16416;SDS011;8317;52.186;5.688;2023-05-07T11:58:20;15.70;;;10.68;;
16416;SDS011;8317;52.186;5.688;2023-05-07T12:00:50;15.55;;;10.43;;
16416;SDS011;8317;52.186;5.688;2023-05-07T12:03:17;17.25;;;11.32;;
16416;SDS011;8317;52.186;5.688;2023-05-07T12:05:44;17.73;;;10.93;;
16416;SDS011;8317;52.186;5.688;2023-05-07T12:08:13;15.32;;;10.40;;
16416;SDS011;8317;52.186;5.688;2023-05-07T12:10:41;16.33;;;10.45;;
16416;SDS011;8317;52.186;5.688;2023-05-07T12:13:15;14.85;;;9.63;;
16416;SDS011;8317;52.186;5.688;2023-05-07T12:15:42;15.43;;;11.10;;
16416;SDS011;8317;52.186;5.688;2023-05-07T12:18:09;16.25;;;10.30;;
16416;SDS011;8317;52.186;5.688;2023-05-07T12:20:37;12.02;;;8.98;;
16416;SDS011;8317;52.186;5.688;2023-05-07T12:23:04;14.90;;;9.40;;
16416;SDS011;8317;52.186;5.688;2023-05-07T12:25:32;14.43;;;9.80;;
16416;SDS011;8317;52.186;5.688;2023-05-07T12:28:01;13.95;;;9.88;;
16416;SDS011;8317;52.186;5.688;2023-05-07T12:30:31;13.52;;;9.55;;
16416;SDS011;8317;52.186;5.688;2023-05-07T12:32:58;15.80;;;9.38;;
16416;SDS011;8317;52.186;5.688;2023-05-07T12:35:26;14.98;;;10.20;;
16416;SDS011;8317;52.186;5.688;2023-05-07T12:37:56;13.90;;;8.80;;
16416;SDS011;8317;52.186;5.688;2023-05-07T12:40:24;14.27;;;9.90;;
16416;SDS011;8317;52.186;5.688;2023-05-07T12:42:52;12.50;;;9.40;;
16416;SDS011;8317;52.186;5.688;2023-05-07T12:45:20;14.50;;;9.98;;
16416;SDS011;8317;52.186;5.688;2023-05-07T12:47:49;13.15;;;9.15;;
16416;SDS011;8317;52.186;5.688;2023-05-07T12:50:16;15.75;;;9.13;;
16416;SDS011;8317;52.186;5.688;2023-05-07T12:52:43;14.20;;;9.55;;
16416;SDS011;8317;52.186;5.688;2023-05-07T12:55:12;16.85;;;9.15;;
16416;SDS011;8317;52.186;5.688;2023-05-07T12:57:40;15.23;;;9.07;;
16416;SDS011;8317;52.186;5.688;2023-05-07T13:00:08;14.35;;;10.13;;
16416;SDS011;8317;52.186;5.688;2023-05-07T13:02:37;14.82;;;10.05;;
16416;SDS011;8317;52.186;5.688;2023-05-07T13:05:07;15.88;;;9.68;;
16416;SDS011;8317;52.186;5.688;2023-05-07T13:07:34;13.27;;;8.60;;
16416;SDS011;8317;52.186;5.688;2023-05-07T13:10:02;17.08;;;9.48;;
16416;SDS011;8317;52.186;5.688;2023-05-07T13:12:29;14.63;;;8.52;;
16416;SDS011;8317;52.186;5.688;2023-05-07T13:14:56;13.40;;;8.23;;
16416;SDS011;8317;52.186;5.688;2023-05-07T13:17:24;13.10;;;7.75;;
16416;SDS011;8317;52.186;5.688;2023-05-07T13:19:51;9.15;;;7.03;;
16416;SDS011;8317;52.186;5.688;2023-05-07T13:22:19;12.05;;;7.45;;
16416;SDS011;8317;52.186;5.688;2023-05-07T13:24:47;11.48;;;7.28;;
16416;SDS011;8317;52.186;5.688;2023-05-07T13:27:14;11.55;;;7.38;;
16416;SDS011;8317;52.186;5.688;2023-05-07T13:29:41;11.40;;;7.60;;
16416;SDS011;8317;52.186;5.688;2023-05-07T13:32:08;13.52;;;7.47;;
16416;SDS011;8317;52.186;5.688;2023-05-07T13:34:35;11.63;;;8.10;;
16416;SDS011;8317;52.186;5.688;2023-05-07T13:37:03;10.23;;;7.20;;
16416;SDS011;8317;52.186;5.688;2023-05-07T13:39:31;13.32;;;7.00;;
16416;SDS011;8317;52.186;5.688;2023-05-07T13:41:58;12.23;;;6.63;;
16416;SDS011;8317;52.186;5.688;2023-05-07T13:44:26;10.52;;;7.47;;
16416;SDS011;8317;52.186;5.688;2023-05-07T13:46:53;11.40;;;7.20;;
16416;SDS011;8317;52.186;5.688;2023-05-07T13:49:20;12.30;;;7.75;;
16416;SDS011;8317;52.186;5.688;2023-05-07T13:51:47;13.35;;;8.25;;
16416;SDS011;8317;52.186;5.688;2023-05-07T13:54:15;11.13;;;8.25;;
16416;SDS011;8317;52.186;5.688;2023-05-07T13:56:43;11.45;;;8.13;;
16416;SDS011;8317;52.186;5.688;2023-05-07T13:59:10;11.10;;;6.93;;
16416;SDS011;8317;52.186;5.688;2023-05-07T14:01:39;13.85;;;9.27;;
16416;SDS011;8317;52.186;5.688;2023-05-07T14:04:06;14.05;;;8.35;;
16416;SDS011;8317;52.186;5.688;2023-05-07T14:06:33;15.88;;;8.52;;
16416;SDS011;8317;52.186;5.688;2023-05-07T14:09:01;11.80;;;8.27;;
16416;SDS011;8317;52.186;5.688;2023-05-07T14:11:29;14.20;;;8.63;;
16416;SDS011;8317;52.186;5.688;2023-05-07T14:13:57;13.95;;;8.18;;
16416;SDS011;8317;52.186;5.688;2023-05-07T14:16:25;11.43;;;8.63;;
16416;SDS011;8317;52.186;5.688;2023-05-07T14:18:52;16.35;;;8.88;;
16416;SDS011;8317;52.186;5.688;2023-05-07T14:21:19;17.98;;;8.75;;
16416;SDS011;8317;52.186;5.688;2023-05-07T14:23:46;14.43;;;8.32;;
16416;SDS011;8317;52.186;5.688;2023-05-07T14:26:14;14.63;;;9.48;;
16416;SDS011;8317;52.186;5.688;2023-05-07T14:28:41;16.38;;;9.10;;
16416;SDS011;8317;52.186;5.688;2023-05-07T14:31:12;16.88;;;9.95;;
16416;SDS011;8317;52.186;5.688;2023-05-07T14:33:39;16.35;;;9.75;;
16416;SDS011;8317;52.186;5.688;2023-05-07T14:36:06;16.45;;;10.13;;
16416;SDS011;8317;52.186;5.688;2023-05-07T14:38:34;17.58;;;10.13;;
16416;SDS011;8317;52.186;5.688;2023-05-07T14:41:01;19.67;;;10.05;;
16416;SDS011;8317;52.186;5.688;2023-05-07T14:43:28;15.15;;;10.27;;
16416;SDS011;8317;52.186;5.688;2023-05-07T14:45:55;16.90;;;10.15;;
16416;SDS011;8317;52.186;5.688;2023-05-07T14:48:24;15.80;;;10.45;;
16416;SDS011;8317;52.186;5.688;2023-05-07T14:50:51;16.98;;;10.13;;
16416;SDS011;8317;52.186;5.688;2023-05-07T14:53:18;20.52;;;10.50;;
16416;SDS011;8317;52.186;5.688;2023-05-07T14:55:46;13.85;;;9.73;;